createdAt,value
2023-04-15T00:01:00.262Z,64.06
2023-04-15T00:03:27.444Z,63.46
2023-04-15T00:05:54.243Z,64.40
2023-04-15T00:08:20.859Z,63.60
2023-04-15T00:10:47.878Z,63.65
2023-04-15T00:13:15.311Z,64.33
2023-04-15T00:15:42.678Z,64.22
2023-04-15T00:18:09.439Z,63.93
2023-04-15T00:20:36.017Z,64.40
2023-04-15T00:23:04.317Z,63.61
2023-04-15T00:25:31.320Z,63.87
2023-04-15T00:27:58.289Z,65.94
2023-04-15T00:30:25.730Z,64.94
2023-04-15T00:32:52.715Z,66.27
2023-04-15T00:35:19.260Z,66.90
2023-04-15T00:37:46.378Z,67.20
2023-04-15T00:40:13.762Z,68.18
2023-04-15T00:42:40.793Z,68.54
2023-04-15T00:45:08.986Z,69.92
2023-04-15T00:47:37.791Z,70.12
2023-04-15T00:50:05.122Z,70.79
2023-04-15T00:52:32.120Z,70.48
2023-04-15T00:54:59.622Z,71.33
2023-04-15T00:57:27.228Z,70.69
2023-04-15T00:59:55.949Z,72.16
2023-04-15T01:02:23.407Z,72.28
2023-04-15T01:04:50.818Z,72.45
2023-04-15T01:07:17.459Z,72.49
2023-04-15T01:09:44.145Z,72.96
2023-04-15T01:12:12.917Z,73.15
2023-04-15T01:14:39.576Z,73.25
2023-04-15T01:17:06.087Z,73.68
2023-04-15T01:19:33.009Z,74.03
2023-04-15T01:21:59.617Z,74.67
2023-04-15T01:24:28.218Z,75.49
2023-04-15T01:26:54.915Z,75.47
2023-04-15T01:29:21.642Z,75.23
2023-04-15T01:31:53.059Z,75.35
2023-04-15T01:34:19.652Z,75.21
2023-04-15T01:36:46.352Z,75.73
2023-04-15T01:39:13.486Z,74.13
2023-04-15T01:41:40.926Z,74.27
2023-04-15T01:44:08.075Z,74.98
2023-04-15T01:46:36.102Z,74.25
2023-04-15T01:49:02.814Z,74.59
2023-04-15T01:51:29.454Z,74.37
2023-04-15T01:53:58.940Z,75.08
2023-04-15T01:56:25.518Z,74.95
2023-04-15T01:58:52.473Z,75.70
2023-04-15T02:01:22.307Z,75.37
2023-04-15T02:03:49.148Z,75.74
2023-04-15T02:06:16.011Z,75.74
2023-04-15T02:08:42.568Z,76.03
2023-04-15T02:11:09.360Z,76.27
2023-04-15T02:13:36.345Z,76.40
2023-04-15T02:16:03.572Z,76.66
2023-04-15T02:18:30.551Z,76.41
2023-04-15T02:20:58.485Z,76.31
2023-04-15T02:23:25.436Z,76.89
2023-04-15T02:25:53.305Z,75.81
2023-04-15T02:28:21.028Z,76.21
2023-04-15T02:30:50.782Z,76.80
2023-04-15T02:33:17.509Z,77.09
2023-04-15T02:35:45.387Z,77.22
2023-04-15T02:38:12.173Z,76.55
2023-04-15T02:40:38.720Z,78.00
2023-04-15T02:43:07.159Z,77.82
2023-04-15T02:45:33.941Z,77.87
2023-04-15T02:48:03.962Z,77.36
2023-04-15T02:50:31.692Z,77.88
2023-04-15T02:52:58.161Z,77.41
2023-04-15T02:55:24.691Z,77.48
2023-04-15T02:57:51.434Z,78.42
2023-04-15T03:00:18.092Z,78.72
2023-04-15T03:02:46.196Z,78.35
2023-04-15T03:05:14.407Z,78.98
2023-04-15T03:07:41.061Z,79.89
2023-04-15T03:10:08.715Z,80.24
2023-04-15T03:12:35.267Z,80.88
2023-04-15T03:15:02.159Z,81.08
2023-04-15T03:17:28.693Z,82.08
2023-04-15T03:19:55.422Z,81.89
2023-04-15T03:22:21.975Z,82.23
2023-04-15T03:24:48.580Z,82.53
2023-04-15T03:27:15.093Z,81.96
2023-04-15T03:29:41.590Z,82.34
2023-04-15T03:32:08.049Z,82.26
2023-04-15T03:34:34.514Z,81.40
2023-04-15T03:37:01.069Z,81.94
2023-04-15T03:39:27.554Z,82.12
2023-04-15T03:41:54.086Z,81.15
2023-04-15T03:44:20.877Z,81.47
2023-04-15T03:46:47.421Z,81.88
2023-04-15T03:49:14.248Z,81.64
2023-04-15T03:51:40.762Z,80.93
2023-04-15T03:54:07.305Z,80.97
2023-04-15T03:56:33.758Z,81.57
2023-04-15T03:59:00.576Z,81.66
2023-04-15T04:01:27.300Z,81.82
2023-04-15T04:03:54.061Z,82.21
2023-04-15T04:06:20.899Z,81.99
2023-04-15T04:08:47.403Z,82.31
2023-04-15T04:11:14.147Z,82.16
2023-04-15T04:13:40.670Z,81.86
2023-04-15T04:16:07.248Z,81.62
2023-04-15T04:18:33.985Z,82.39
2023-04-15T04:21:00.720Z,82.18
2023-04-15T04:23:27.223Z,82.08
2023-04-15T04:25:53.705Z,82.61
2023-04-15T04:28:20.231Z,82.91
2023-04-15T04:30:46.766Z,83.41
2023-04-15T04:33:13.310Z,83.40
2023-04-15T04:35:39.860Z,83.17
2023-04-15T04:38:06.347Z,83.31
2023-04-15T04:40:32.890Z,83.09
2023-04-15T04:42:59.978Z,83.86
2023-04-15T04:45:27.161Z,84.06
2023-04-15T04:47:53.853Z,83.64
2023-04-15T04:50:21.055Z,83.37
2023-04-15T04:52:47.803Z,83.88
2023-04-15T04:55:14.311Z,82.90
2023-04-15T04:57:40.964Z,83.85
2023-04-15T05:00:09.226Z,83.94
2023-04-15T05:02:36.225Z,84.17
2023-04-15T05:05:02.942Z,83.77
2023-04-15T05:07:29.457Z,84.37
2023-04-15T05:09:57.191Z,84.10
2023-04-15T05:12:23.950Z,84.45
2023-04-15T05:14:50.606Z,84.28
2023-04-15T05:17:17.115Z,84.27
2023-04-15T05:19:43.593Z,84.71
2023-04-15T05:22:10.160Z,85.16
2023-04-15T05:24:36.686Z,85.53
2023-04-15T05:27:03.678Z,85.72
2023-04-15T05:29:30.625Z,85.45
2023-04-15T05:31:57.269Z,86.01
2023-04-15T05:34:23.746Z,85.18
2023-04-15T05:36:50.516Z,84.52
2023-04-15T05:39:17.047Z,82.41
2023-04-15T05:41:43.579Z,80.94
2023-04-15T05:44:10.262Z,79.80
2023-04-15T05:46:37.230Z,79.83
2023-04-15T05:49:04.154Z,80.71
2023-04-15T05:51:31.127Z,81.09
2023-04-15T05:53:57.666Z,81.70
2023-04-15T05:56:24.840Z,82.80
2023-04-15T05:58:53.685Z,83.20
2023-04-15T06:01:20.710Z,82.92
2023-04-15T06:03:47.297Z,83.20
2023-04-15T06:06:14.340Z,83.52
2023-04-15T06:08:41.337Z,84.08
2023-04-15T06:11:07.884Z,83.63
2023-04-15T06:13:34.943Z,83.29
2023-04-15T06:16:01.584Z,83.81
2023-04-15T06:18:28.166Z,84.14
2023-04-15T06:20:54.684Z,84.20
2023-04-15T06:23:21.231Z,84.69
2023-04-15T06:25:47.968Z,84.35
2023-04-15T06:28:14.420Z,84.06
2023-04-15T06:30:41.132Z,82.68
2023-04-15T06:33:07.679Z,80.27
2023-04-15T06:35:34.334Z,79.45
2023-04-15T06:38:00.828Z,79.96
2023-04-15T06:40:27.849Z,80.29
2023-04-15T06:42:55.317Z,80.32
2023-04-15T06:45:21.909Z,77.59
2023-04-15T06:47:48.520Z,75.32
2023-04-15T06:50:15.145Z,74.99
2023-04-15T06:52:41.704Z,75.65
2023-04-15T06:55:08.724Z,76.14
2023-04-15T06:57:35.324Z,77.20
2023-04-15T07:00:02.513Z,77.11
2023-04-15T07:02:29.164Z,78.50
2023-04-15T07:04:56.964Z,78.54
2023-04-15T07:07:23.548Z,77.63
2023-04-15T07:09:50.181Z,77.40
2023-04-15T07:12:16.683Z,73.91
2023-04-15T07:14:43.394Z,71.56
2023-04-15T07:17:10.006Z,71.20
2023-04-15T07:19:36.569Z,71.38
2023-04-15T07:22:03.078Z,73.49
2023-04-15T07:24:30.158Z,74.18
2023-04-15T07:26:59.560Z,72.70
2023-04-15T07:29:27.318Z,73.62
2023-04-15T07:31:53.849Z,72.42
2023-04-15T07:34:21.048Z,71.33
2023-04-15T07:36:50.684Z,70.73
2023-04-15T07:39:17.894Z,70.49
2023-04-15T07:41:44.522Z,70.29
2023-04-15T07:44:11.563Z,72.30
2023-04-15T07:46:38.593Z,69.44
2023-04-15T07:49:05.281Z,69.40
2023-04-15T07:51:32.371Z,67.39
2023-04-15T07:53:59.318Z,68.84
2023-04-15T07:56:26.492Z,69.93
2023-04-15T07:58:53.363Z,68.10
2023-04-15T08:01:19.978Z,67.87
2023-04-15T08:03:47.197Z,67.81
2023-04-15T08:06:14.293Z,67.38
2023-04-15T08:08:40.842Z,66.59
2023-04-15T08:11:07.417Z,66.58
2023-04-15T08:13:34.002Z,64.95
2023-04-15T08:16:20.910Z,65.38
2023-04-15T08:18:51.542Z,63.99
2023-04-15T08:21:20.016Z,65.00
2023-04-15T08:23:48.421Z,62.47
2023-04-15T08:26:15.182Z,62.86
2023-04-15T08:28:42.868Z,61.53
2023-04-15T08:31:09.903Z,62.23
2023-04-15T08:33:36.916Z,62.48
2023-04-15T08:36:03.619Z,62.68
2023-04-15T08:38:30.279Z,63.67
2023-04-15T08:41:00.076Z,62.15
2023-04-15T08:43:34.965Z,62.19
2023-04-15T08:46:02.325Z,61.47
2023-04-15T08:48:29.845Z,63.86
2023-04-15T08:50:57.363Z,64.57
2023-04-15T08:53:24.523Z,63.52
2023-04-15T08:55:52.860Z,63.23
2023-04-15T08:58:19.985Z,64.53
2023-04-15T09:00:46.698Z,66.05
2023-04-15T09:03:13.841Z,65.76
2023-04-15T09:05:40.390Z,65.32
2023-04-15T09:08:09.422Z,64.28
2023-04-15T09:10:36.234Z,63.43
2023-04-15T09:13:02.853Z,63.81
2023-04-15T09:15:30.558Z,63.77
2023-04-15T09:17:57.269Z,63.88
2023-04-15T09:20:24.140Z,64.64
2023-04-15T09:22:53.148Z,65.30
2023-04-15T09:25:22.706Z,63.12
2023-04-15T09:27:49.984Z,63.67
2023-04-15T09:30:16.908Z,65.44
2023-04-15T09:33:00.955Z,63.91
2023-04-15T09:35:28.244Z,63.86
2023-04-15T09:38:07.331Z,64.00
2023-04-15T09:40:42.891Z,65.28
2023-04-15T09:43:12.977Z,64.78
2023-04-15T09:45:49.077Z,66.31
2023-04-15T09:48:17.014Z,64.29
2023-04-15T09:50:45.239Z,64.91
2023-04-15T09:53:15.521Z,64.07
2023-04-15T09:55:46.174Z,63.88
2023-04-15T09:58:21.159Z,62.59
2023-04-15T10:00:51.128Z,61.56
2023-04-15T10:03:22.106Z,62.80
2023-04-15T10:05:50.541Z,64.34
2023-04-15T10:08:22.473Z,65.12
2023-04-15T10:10:49.118Z,63.94
2023-04-15T10:13:19.139Z,64.86
2023-04-15T10:15:54.450Z,63.69
2023-04-15T10:18:27.693Z,62.22
2023-04-15T10:20:55.117Z,61.41
2023-04-15T10:23:24.501Z,62.14
2023-04-15T10:25:53.961Z,62.84
2023-04-15T10:28:23.004Z,63.00
2023-04-15T10:30:50.139Z,61.92
2023-04-15T10:33:22.684Z,61.94
2023-04-15T10:35:51.726Z,61.84
2023-04-15T10:38:45.881Z,63.73
2023-04-15T10:41:21.249Z,63.03
2023-04-15T10:44:02.234Z,61.88
2023-04-15T10:46:47.382Z,60.53
2023-04-15T10:49:15.294Z,61.68
2023-04-15T10:52:02.094Z,62.74
2023-04-15T10:54:28.580Z,61.62
2023-04-15T10:57:09.361Z,60.20
2023-04-15T10:59:58.905Z,61.33
2023-04-15T11:02:48.117Z,62.77
2023-04-15T11:05:16.397Z,60.46
2023-04-15T11:07:56.178Z,59.58
2023-04-15T11:10:42.629Z,60.49
2023-04-15T11:13:12.114Z,60.40
2023-04-15T11:15:47.012Z,59.24
2023-04-15T11:18:13.474Z,58.38
2023-04-15T11:20:50.844Z,59.46
2023-04-15T11:23:38.072Z,57.91
2023-04-15T11:26:09.895Z,58.40
2023-04-15T11:28:47.055Z,58.12
2023-04-15T11:31:15.551Z,57.52
2023-04-15T11:34:02.450Z,59.24
2023-04-15T11:36:32.180Z,61.18
2023-04-15T11:38:59.875Z,63.86
2023-04-15T11:41:26.930Z,60.10
2023-04-15T11:43:55.111Z,60.55
2023-04-15T11:46:40.291Z,58.80
2023-04-15T11:49:06.874Z,59.94
2023-04-15T11:51:34.744Z,59.21
2023-04-15T11:54:01.591Z,59.87
2023-04-15T11:56:28.280Z,59.75
2023-04-15T11:59:02.333Z,58.23
2023-04-15T12:01:39.334Z,57.99
2023-04-15T12:04:25.228Z,57.77
2023-04-15T12:06:52.522Z,58.16
2023-04-15T12:09:20.372Z,59.02
2023-04-15T12:11:58.299Z,59.91
2023-04-15T12:14:32.337Z,58.48
2023-04-15T12:17:04.808Z,57.00
2023-04-15T12:19:36.290Z,57.39
2023-04-15T12:22:10.811Z,58.47
2023-04-15T12:24:39.001Z,58.50
2023-04-15T12:27:07.724Z,59.31
2023-04-15T12:29:38.391Z,58.13
2023-04-15T12:32:12.932Z,59.30
2023-04-15T12:34:44.801Z,59.61
2023-04-15T12:37:16.058Z,60.37
2023-04-15T12:39:44.769Z,58.39
2023-04-15T12:42:12.304Z,59.73
2023-04-15T12:44:40.030Z,60.00
2023-04-15T12:47:13.262Z,60.96
2023-04-15T12:49:40.142Z,59.53
2023-04-15T12:52:06.911Z,60.50
2023-04-15T12:54:34.412Z,61.19
2023-04-15T12:57:01.192Z,61.57
2023-04-15T12:59:29.032Z,62.69
2023-04-15T13:01:57.999Z,59.49
2023-04-15T13:04:24.990Z,59.49
2023-04-15T13:06:51.797Z,59.05
2023-04-15T13:09:18.360Z,59.98
2023-04-15T13:11:47.037Z,60.75
2023-04-15T13:14:14.323Z,61.89
2023-04-15T13:16:44.462Z,62.47
2023-04-15T13:19:11.609Z,62.40
2023-04-15T13:21:40.155Z,64.23
2023-04-15T13:24:08.447Z,64.56
2023-04-15T13:26:35.331Z,65.59
2023-04-15T13:29:01.990Z,65.88
2023-04-15T13:31:28.700Z,65.92
2023-04-15T13:33:57.621Z,66.26
2023-04-15T13:36:24.470Z,67.20
2023-04-15T13:38:51.684Z,66.95
2023-04-15T13:41:18.419Z,67.01
2023-04-15T13:43:45.023Z,67.25
2023-04-15T13:46:11.707Z,68.10
2023-04-15T13:48:38.572Z,66.42
2023-04-15T13:51:05.190Z,66.47
2023-04-15T13:53:38.049Z,67.03
2023-04-15T13:56:07.586Z,67.32
2023-04-15T13:58:34.362Z,66.51
2023-04-15T14:01:02.631Z,67.10
2023-04-15T14:03:49.035Z,67.08
2023-04-15T14:06:15.710Z,67.12
2023-04-15T14:08:42.477Z,66.15
2023-04-15T14:11:09.318Z,66.29
2023-04-15T14:13:36.308Z,67.20
2023-04-15T14:16:03.111Z,67.98
2023-04-15T14:18:30.644Z,68.04
2023-04-15T14:20:57.176Z,67.46
2023-04-15T14:23:23.861Z,69.94
2023-04-15T14:25:51.048Z,71.22
2023-04-15T14:28:17.634Z,72.22
2023-04-15T14:30:44.342Z,72.51
2023-04-15T14:33:10.972Z,72.52
2023-04-15T14:35:37.954Z,72.43
2023-04-15T14:38:05.910Z,72.00
2023-04-15T14:40:33.697Z,71.58
2023-04-15T14:43:00.333Z,72.18
2023-04-15T14:45:27.024Z,71.21
2023-04-15T14:47:53.781Z,70.38
2023-04-15T14:50:22.555Z,69.43
2023-04-15T14:52:49.162Z,69.33
2023-04-15T14:55:15.816Z,68.93
2023-04-15T14:57:43.215Z,69.43
2023-04-15T15:00:12.309Z,69.75
2023-04-15T15:02:42.250Z,70.38
2023-04-15T15:05:10.804Z,71.06
2023-04-15T15:07:39.416Z,70.80
2023-04-15T15:10:07.087Z,71.61
2023-04-15T15:12:33.942Z,71.21
2023-04-15T15:15:02.984Z,70.70
2023-04-15T15:17:31.794Z,70.16
2023-04-15T15:19:58.546Z,70.37
2023-04-15T15:22:26.182Z,70.48
2023-04-15T15:24:53.570Z,71.57
2023-04-15T15:27:20.305Z,71.54
2023-04-15T15:29:47.067Z,71.57
2023-04-15T15:32:13.647Z,72.48
2023-04-15T15:34:40.427Z,72.51
2023-04-15T15:37:06.976Z,72.98
2023-04-15T15:39:34.904Z,73.64
2023-04-15T15:42:01.641Z,75.11
2023-04-15T15:44:45.272Z,74.18
2023-04-15T15:47:12.004Z,74.57
2023-04-15T15:49:39.729Z,75.35
2023-04-15T15:52:06.641Z,75.99
2023-04-15T15:54:33.543Z,75.76
2023-04-15T15:57:00.141Z,75.80
2023-04-15T15:59:26.743Z,75.90
2023-04-15T16:01:53.789Z,75.57
2023-04-15T16:04:20.954Z,75.80
2023-04-15T16:06:48.444Z,76.33
2023-04-15T16:09:15.194Z,76.44
2023-04-15T16:12:11.994Z,76.63
2023-04-15T16:14:48.349Z,76.46
2023-04-15T16:17:32.913Z,75.95
2023-04-15T16:20:01.517Z,76.63
2023-04-15T16:25:32.944Z,76.52
2023-04-15T16:28:22.603Z,76.97
2023-04-15T16:31:12.832Z,77.14
2023-04-15T16:33:41.941Z,76.52
2023-04-15T16:36:12.458Z,75.69
2023-04-15T16:38:53.481Z,76.25
2023-04-15T16:41:22.649Z,76.99
2023-04-15T16:44:17.797Z,76.49
2023-04-15T16:46:47.270Z,77.01
2023-04-15T16:49:23.140Z,76.56
2023-04-15T16:52:17.565Z,77.00
2023-04-15T16:54:52.652Z,78.00
2023-04-15T16:58:00.744Z,77.91
2023-04-15T17:00:23.405Z,78.18
2023-04-15T17:02:52.845Z,78.35
2023-04-15T17:05:19.640Z,78.65
2023-04-15T17:07:51.802Z,78.61
2023-04-15T17:10:18.490Z,77.80
2023-04-15T17:12:45.477Z,78.18
2023-04-15T17:15:34.150Z,78.09
2023-04-15T17:18:08.440Z,78.94
2023-04-15T17:23:16.946Z,78.39
2023-04-15T17:25:44.505Z,78.34
2023-04-15T17:28:12.694Z,78.31
2023-04-15T17:30:39.772Z,78.97
2023-04-15T17:33:56.099Z,79.18
2023-04-15T17:36:03.205Z,79.80
2023-04-15T17:38:51.249Z,80.23
2023-04-15T17:41:24.471Z,81.07
2023-04-15T17:43:56.628Z,80.19
2023-04-15T17:46:23.485Z,80.38
2023-04-15T17:48:50.521Z,80.12
2023-04-15T17:51:20.398Z,80.00
2023-04-15T17:53:49.797Z,80.25
2023-04-15T17:56:27.002Z,79.91
2023-04-15T17:59:01.763Z,80.27
2023-04-15T18:01:34.447Z,80.15
2023-04-15T18:04:01.425Z,80.42
2023-04-15T18:06:41.301Z,80.96
2023-04-15T18:09:12.740Z,81.21
2023-04-15T18:11:52.508Z,81.40
2023-04-15T18:14:33.544Z,80.77
2023-04-15T18:17:04.358Z,80.10
2023-04-15T18:19:35.536Z,81.12
2023-04-15T18:22:09.521Z,79.69
2023-04-15T18:24:41.959Z,79.61
2023-04-15T18:27:11.129Z,80.37
2023-04-15T18:29:47.315Z,80.08
2023-04-15T18:32:23.111Z,80.41
2023-04-15T18:34:49.880Z,80.33
2023-04-15T18:37:42.423Z,80.68
2023-04-15T18:40:13.374Z,81.14
2023-04-15T18:42:42.354Z,81.24
2023-04-15T18:45:15.736Z,81.71
2023-04-15T18:48:03.376Z,81.77
2023-04-15T18:50:29.962Z,81.76
2023-04-15T18:53:05.692Z,82.95
2023-04-15T18:55:33.819Z,83.17
2023-04-15T18:58:09.220Z,83.05
2023-04-15T19:00:39.097Z,83.71
2023-04-15T19:03:09.660Z,84.17
2023-04-15T19:05:38.953Z,84.66
2023-04-15T19:08:12.126Z,84.44
2023-04-15T19:13:28.029Z,85.12
2023-04-15T19:16:07.132Z,85.06
2023-04-15T19:18:56.129Z,85.33
2023-04-15T19:21:38.132Z,85.87
2023-04-15T19:24:32.397Z,86.14
2023-04-15T19:27:04.339Z,85.74
2023-04-15T19:29:33.802Z,86.01
2023-04-15T19:32:07.998Z,86.25
2023-04-15T19:34:39.660Z,86.67
2023-04-15T19:37:10.919Z,86.90
2023-04-15T19:39:59.078Z,87.39
2023-04-15T19:43:08.971Z,88.47
2023-04-15T19:45:34.285Z,88.57
2023-04-15T19:48:24.908Z,88.14
2023-04-15T19:51:11.265Z,88.48
2023-04-15T19:53:47.016Z,88.52
2023-04-15T19:56:34.627Z,88.67
2023-04-15T19:59:14.685Z,89.10
2023-04-15T20:01:42.895Z,88.71
2023-04-15T20:04:13.891Z,89.03
2023-04-15T20:06:44.678Z,88.96
2023-04-15T20:09:50.599Z,88.80
2023-04-15T20:12:49.256Z,89.04
2023-04-15T20:15:13.654Z,88.44
2023-04-15T20:18:02.296Z,89.01
2023-04-15T20:21:09.016Z,88.16
2023-04-15T20:23:44.600Z,88.80
2023-04-15T20:26:20.776Z,88.61
2023-04-15T20:29:02.708Z,88.68
2023-04-15T20:32:26.872Z,88.74
2023-04-15T20:35:31.014Z,88.50
2023-04-15T20:38:15.924Z,89.36
2023-04-15T20:40:46.948Z,89.37
2023-04-15T20:43:16.313Z,89.20
2023-04-15T20:45:53.579Z,90.05
2023-04-15T20:48:27.509Z,89.63
2023-04-15T20:50:55.804Z,89.73
2023-04-15T20:53:29.555Z,89.95
2023-04-15T20:55:57.721Z,89.77
2023-04-15T20:58:28.573Z,89.89
2023-04-15T21:01:09.330Z,90.56
2023-04-15T21:03:38.873Z,90.42
2023-04-15T21:06:09.697Z,90.36
2023-04-15T21:08:36.434Z,90.80
2023-04-15T21:11:03.272Z,90.81
2023-04-15T21:13:29.890Z,90.89
2023-04-15T21:15:56.524Z,91.15
2023-04-15T21:18:36.335Z,91.45
2023-04-15T21:21:13.693Z,91.47
2023-04-15T21:23:44.913Z,91.66
2023-04-15T21:26:51.938Z,91.73
2023-04-15T21:29:14.106Z,92.37
2023-04-15T21:31:59.117Z,92.19
2023-04-15T21:34:38.054Z,92.38
2023-04-15T21:37:54.627Z,92.60
2023-04-15T21:40:16.604Z,92.34
2023-04-15T21:43:03.293Z,92.90
2023-04-15T21:45:39.718Z,93.02
2023-04-15T21:48:29.156Z,93.39
2023-04-15T21:51:09.011Z,93.01
2023-04-15T21:53:36.179Z,93.23
2023-04-15T21:56:13.355Z,93.62
2023-04-15T21:58:41.562Z,93.43
2023-04-15T22:01:19.809Z,94.14
2023-04-15T22:04:16.218Z,93.88
2023-04-15T22:07:07.907Z,94.34
2023-04-15T22:12:45.487Z,94.48
2023-04-15T22:15:14.075Z,94.62
2023-04-15T22:17:42.838Z,94.90
2023-04-15T22:20:17.076Z,94.96
2023-04-15T22:22:44.876Z,95.08
2023-04-15T22:25:13.823Z,95.27
2023-04-15T22:28:01.529Z,94.97
2023-04-15T22:30:44.901Z,95.18
2023-04-15T22:34:08.577Z,94.82
2023-04-15T22:39:10.534Z,96.33
2023-04-15T22:41:37.208Z,96.85
2023-04-15T22:44:03.784Z,96.74
2023-04-15T22:46:30.493Z,97.52
2023-04-15T22:48:57.158Z,97.82
2023-04-15T22:51:26.948Z,97.53
2023-04-15T22:53:54.341Z,97.59
2023-04-15T22:56:22.231Z,97.80
2023-04-15T22:58:49.438Z,98.18
2023-04-15T23:01:17.612Z,97.85
2023-04-15T23:03:57.178Z,98.32
2023-04-15T23:06:31.225Z,98.06
2023-04-15T23:08:57.665Z,98.51
2023-04-15T23:11:24.210Z,98.11
2023-04-15T23:13:50.749Z,98.06
2023-04-15T23:16:17.432Z,98.20
2023-04-15T23:18:44.001Z,98.97
2023-04-15T23:21:10.504Z,99.35
2023-04-15T23:23:36.989Z,99.31
2023-04-15T23:26:04.229Z,99.31
2023-04-15T23:28:30.948Z,99.69
2023-04-15T23:31:00.321Z,99.64
2023-04-15T23:33:27.679Z,99.69
2023-04-15T23:35:54.185Z,99.55
2023-04-15T23:38:20.720Z,99.91
2023-04-15T23:40:47.211Z,99.81
2023-04-15T23:43:13.659Z,100.00
2023-04-15T23:45:40.240Z,100.00
2023-04-15T23:48:06.960Z,100.00
2023-04-15T23:50:33.536Z,100.00
2023-04-15T23:53:00.162Z,100.00
2023-04-15T23:55:26.677Z,100.00
2023-04-15T23:57:53.179Z,100.00
